Tiempo atmosférico en la estación meteorológica de Marbella, Málaga (2 m.)



Fecha
DESCASC
Temp. máxima en grados centígrados (hora)
DESCASC
Temp. mínima en grados centígrados (hora)
DESCASC
Temp. media en grados centígrados
DESCASC
Racha de viento máxima en m/sg (hora)
DESCASC
Velocidad máxima media en intervalos de 10 minutos(hora)
DESCASC
Precipitaciones diarias en mm
DESCASC
Precipitaciones de 00:00 a 06:00 en mm
DESCASC
Precipitaciones de 06:00 a 12:00 en mm
DESCASC
Precipitaciones de 12:00 a 18:00 en mm
DESCASC
Precipitaciones de 18:00 a 24:00 en mm
DESCASC
17-09-2020 -- (--) -- (--) -- 12.22 (14:20) 9.17 (13:50) 2 0 0 0 2
16-09-2020 -- (--) -- (--) -- 7.78 (23:59) 6.39 (23:50) 0 0 0 0 0
15-09-2020 -- (--) -- (--) -- 6.67 (12:20) 5.56 (15:00) 0 0 0 0 0
14-09-2020 -- (--) -- (--) -- 7.22 (01:00) 4.72 (19:00) 0 0 0 0 0
13-09-2020 -- (--) -- (--) -- 9.72 (15:00) 6.11 (14:50) 0 0 0 0 0
12-09-2020 -- (--) -- (--) -- 9.72 (16:50) 7.22 (15:00) 0 0 0 0 0
11-09-2020 -- (--) -- (--) -- 7.5 (12:30) 6.67 (12:40) 0 0 0 0 0
10-09-2020 -- (--) -- (--) -- 4.17 (03:00) 3.61 (12:40) 0 0 0 0 0
09-09-2020 -- (--) -- (--) -- 8.33 (10:10) 6.11 (12:40) 0 0 0 0 0
08-09-2020 -- (--) -- (--) -- 11.11 (13:00) 7.78 (13:00) 0 0 0 0 0
07-09-2020 -- (--) -- (--) -- 8.61 (22:50) 6.67 (22:50) 0 0 0 0 0
06-09-2020 -- (--) -- (--) -- 8.06 (10:30) 5.83 (10:40) 0 0 0 0 0
05-09-2020 -- (--) -- (--) -- 8.61 (12:00) 6.94 (12:20) 0 0 0 0 0
04-09-2020 -- (--) -- (--) -- 7.78 (03:20) 5.56 (03:20) 0 0 0 0 0
03-09-2020 -- (--) -- (--) -- 13.61 (17:40) 9.72 (14:00) 0 0 0 0 0
02-09-2020 -- (--) -- (--) -- 6.94 (20:10) 6.39 (16:50) 0 0 0 0 0
01-09-2020 -- (--) -- (--) -- 7.5 (11:10) 5.83 (12:00) 0 0 0 0 0
31-08-2020 -- (--) -- (--) -- 11.67 (12:30) 9.17 (13:40) 0 0 0 0 0
30-08-2020 -- (--) -- (--) -- 15 (08:30) 10.56 (08:30) 0 0 0 0 0
29-08-2020 -- (--) -- (--) -- 13.06 (14:10) 8.61 (00:20) 0 0 0 0 0
28-08-2020 -- (--) -- (--) -- 15.83 (18:30) 10.56 (20:40) 0 0 0 0 0
27-08-2020 -- (--) -- (--) -- 4.17 (16:10) 3.61 (16:10) 0 0 0 0 0
26-08-2020 -- (--) -- (--) -- 4.72 (19:40) 4.17 (19:40) 0 0 0 0 0
25-08-2020 -- (--) -- (--) -- 5 (16:00) 4.72 (11:20) 0 0 0 0 0
24-08-2020 -- (--) -- (--) -- 7.22 (01:30) 6.11 (01:30) 0 0 0 0 0
23-08-2020 -- (--) -- (--) -- 11.11 (14:10) 9.17 (13:50) 0 0 0 0 0
22-08-2020 -- (--) -- (--) -- 10.28 (22:50) 8.89 (22:10) 0 0 0 0 0
21-08-2020 -- (--) -- (--) -- 6.67 (17:00) 6.11 (11:20) 0 0 0 0 0

Gráficas

Temp. máximas Temp. mínimas Temp. medias Precipitaciones Rachas de viento máximas Velocidades máximas media en intervalos de 10 minutos

Datos horarios

Fecha y hora oficial Temperatura (ºC) Velocidad del viento (km/h) Dirección del viento Racha (km/h) Dirección de racha Precipitación (mm) Presión (hPa) Tendencia (hPa) Humedad (%)
2020-09-19 23:00:00 -- 16 Oeste 34 Oeste 0 -- -- 78
2020-09-19 22:00:00 -- 22 Oeste 35 Oeste 0 -- -- 78
2020-09-19 21:00:00 -- 28 Oeste 37 Sudoeste 0 -- -- 79
2020-09-19 20:00:00 -- 25 Sudoeste 38 Sudoeste 0 -- -- 80
2020-09-19 19:00:00 -- 31 Sudoeste 38 Sudoeste 0 -- -- 79
2020-09-19 18:00:00 -- 34 Sudoeste 46 Sudoeste 0 -- -- 76
2020-09-19 17:00:00 -- 30 Sudoeste 40 Sudoeste 0 -- -- 78
2020-09-19 16:00:00 -- 21 Sudoeste 29 Sudoeste 0 -- -- 81
2020-09-19 15:00:00 -- 16 Sudoeste 26 Sudoeste 0 -- -- 80
2020-09-19 14:00:00 -- 22 Sudoeste 32 Sudoeste 0 -- -- 81
2020-09-19 13:00:00 -- 26 Sudoeste 31 Sudoeste 0 -- -- 83
2020-09-19 12:00:00 -- 24 Sudoeste 32 Sudoeste 0 -- -- 80
2020-09-19 11:00:00 -- 26 Sudoeste 31 Sudoeste 0 -- -- 82
2020-09-19 10:00:00 -- 21 Oeste 27 Sudoeste 0 -- -- 83
2020-09-19 09:00:00 -- 10 Noroeste 17 Noroeste 0 -- -- 82
2020-09-19 08:00:00 -- 12 Oeste 23 Sudoeste 0 -- -- 83
2020-09-19 07:00:00 -- 11 Oeste 18 Sudoeste 0 -- -- 83
2020-09-19 06:00:00 -- 9 Oeste 23 Sudoeste 0 -- -- 82
2020-09-19 05:00:00 -- 21 Oeste 26 Sudoeste 0 -- -- 81
2020-09-19 04:00:00 -- 19 Sudoeste 26 Oeste 0 -- -- 84
2020-09-19 03:00:00 -- 24 Oeste 32 Oeste 0 -- -- 80
2020-09-19 02:00:00 -- 23 Oeste 36 Oeste 0 -- -- 79
2020-09-19 01:00:00 -- 23 Oeste 29 Sudoeste 0 -- -- 80
2020-09-19 00:00:00 -- 27 Sudoeste 36 Sudoeste 0 -- -- 83
2020-09-18 23:00:00 -- 30 Sudoeste 35 Sudoeste 0 -- -- 84
2020-09-18 22:00:00 -- 28 Sudoeste 35 Sudoeste 0 -- -- 82
2020-09-18 21:00:00 -- 30 Sudoeste 41 Sudoeste 0 -- -- 78
2020-09-18 20:00:00 -- 30 Sudoeste 37 Sudoeste 0 -- -- 77
2020-09-18 19:00:00 -- 18 Sur 22 Sur 0 -- -- 76
2020-09-18 18:00:00 -- 12 Sur 18 Oeste 0 -- -- 79
2020-09-18 17:00:00 -- 13 Oeste 21 Oeste 0 -- -- 81
2020-09-18 16:00:00 -- 15 Sudeste 21 Sudeste 0 -- -- 81
2020-09-18 15:00:00 -- 19 Sudeste 25 Sudeste 0 -- -- 85
2020-09-18 14:00:00 -- 18 Sudeste 31 Sudeste 0 -- -- 86
2020-09-18 13:00:00 -- 27 Sur 35 Sudeste 0 -- -- 81
2020-09-18 12:00:00 -- 21 Sudeste 49 Este 0 -- -- 84
2020-09-18 11:00:00 -- 27 Este 39 Nordeste 0 -- -- 86
2020-09-18 10:00:00 -- 37 Nordeste 52 Este 0 -- -- 87
2020-09-18 09:00:00 -- 18 Nordeste 34 Este 0 -- -- 86
2020-09-18 08:00:00 -- 24 Este 30 Este 0 -- -- 87
2020-09-18 07:00:00 -- 12 Nordeste 22 Nordeste 0 -- -- 84
2020-09-18 06:00:00 -- 19 Este 24 Este 0 -- -- 84
2020-09-18 05:00:00 -- 15 Nordeste 22 Nordeste 0 -- -- 87
2020-09-18 04:00:00 -- 10 Sudeste 22 Sur 0 -- -- 86
2020-09-18 03:00:00 -- 16 Sur 28 Sur 0.2 -- -- 82
2020-09-18 02:00:00 -- 23 Sur 39 Sur 0.2 -- -- 76
2020-09-18 01:00:00 -- 21 Sur 34 Sur 0.2 -- -- 82
2020-09-18 00:00:00 -- 2 Sudoeste 13 Oeste 0 -- -- 83
2020-09-17 23:00:00 -- 6 Oeste 19 Sudoeste 0.2 -- -- 78
2020-09-17 22:00:00 -- 17 Sudoeste 40 Sudoeste 0 -- -- 79
2020-09-17 21:00:00 -- 12 Sudoeste 18 Sur 0.6 -- -- 81
2020-09-17 20:00:00 -- 11 Este 25 Sudeste 1.2 -- -- 86
2020-09-17 19:00:00 -- 15 Este 20 Este 0 -- -- 83
2020-09-17 18:00:00 -- 10 Sudeste 28 Nordeste 0 -- -- 77
2020-09-17 17:00:00 -- 16 Este 31 Nordeste 0 -- -- 73
2020-09-17 16:00:00 -- 22 Este 37 Nordeste 0 -- -- 78
2020-09-17 15:00:00 -- 26 Nordeste 44 Este 0 -- -- 80
2020-09-17 14:00:00 -- 33 Nordeste 42 Este 0 -- -- 79
2020-09-17 13:00:00 -- 29 Nordeste 41 Nordeste 0 -- -- 80
2020-09-17 12:00:00 -- 24 Nordeste 40 Nordeste 0 -- -- 85
2020-09-17 11:00:00 -- 28 Nordeste 37 Nordeste 0 -- -- 84
2020-09-17 10:00:00 -- 22 Nordeste 34 Nordeste 0 -- -- 88
2020-09-17 09:00:00 -- 26 Nordeste 36 Nordeste 0 -- -- 89
2020-09-17 08:00:00 -- 27 Nordeste 35 Nordeste 0 -- -- 88
2020-09-17 07:00:00 -- 21 Nordeste 29 Nordeste 0 -- -- 86
2020-09-17 06:00:00 -- 11 Nordeste 17 Nordeste 0 -- -- 85
2020-09-17 05:00:00 -- 11 Nordeste 14 Nordeste 0 -- -- 85
2020-09-17 04:00:00 -- 8 Nordeste 14 Nordeste 0 -- -- 84
2020-09-17 03:00:00 -- 8 Nordeste 12 Nordeste 0 -- -- 85
2020-09-17 02:00:00 -- 10 Nordeste 21 Este 0 -- -- 86
2020-09-17 01:00:00 -- 14 Este 27 Este 0 -- -- 87
2020-09-17 00:00:00 -- 22 Nordeste 28 Este 0 -- -- 85
2020-09-16 23:00:00 -- 12 Nordeste 24 Este 0 -- -- 82
2020-09-16 22:00:00 -- 9 Este 12 Este 0 -- -- 83
2020-09-16 21:00:00 -- 7 Este 9 Este 0 -- -- 82
2020-09-16 20:00:00 -- 8 Este 10 Este 0 -- -- 82
2020-09-16 19:00:00 -- 8 Este 13 Este 0 -- -- 82
2020-09-16 18:00:00 -- 12 Este 15 Este 0 -- -- 81
2020-09-16 17:00:00 -- 16 Este 20 Este 0 -- -- 78
2020-09-16 16:00:00 -- 19 Este 25 Este 0 -- -- 79
2020-09-16 15:00:00 -- 16 Este 18 Este 0 -- -- 79
2020-09-16 14:00:00 -- 12 Este 14 Este 0 -- -- 75
2020-09-16 13:00:00 -- 10 Este 13 Este 0 -- -- 77
2020-09-16 12:00:00 -- 11 Este 12 Este 0 -- -- 79
2020-09-16 11:00:00 -- 8 Este 11 Este 0 -- -- 78
2020-09-16 10:00:00 -- 9 Este 12 Este 0 -- -- 79
2020-09-16 09:00:00 -- 2 Nordeste 6 Nordeste 0 -- -- 84
2020-09-16 08:00:00 -- 7 Nordeste 13 Nordeste 0 -- -- 86
2020-09-16 07:00:00 -- 5 Norte 9 Norte 0 -- -- 84
2020-09-16 06:00:00 -- 4 Norte 10 Nordeste 0 -- -- 84
2020-09-16 05:00:00 -- 6 Nordeste 10 Nordeste 0 -- -- 85
2020-09-16 04:00:00 -- 7 Norte 11 Norte 0 -- -- 86
2020-09-16 03:00:00 -- 8 Norte 13 Norte 0 -- -- 87
2020-09-16 02:00:00 -- 4 Norte 7 Norte 0 -- -- 87
2020-09-16 01:00:00 -- 3 Norte 6 Nordeste 0 -- -- 86
2020-09-16 00:00:00 -- 0 Calma 7 Nordeste 0 -- -- 86
2020-09-15 23:00:00 -- 2 Nordeste 8 Este 0 -- -- 86
2020-09-15 22:00:00 -- 6 Este 11 Este 0 -- -- 85
2020-09-15 21:00:00 -- 7 Este 12 Este 0 -- -- 83
2020-09-15 20:00:00 -- 10 Este 19 Este 0 -- -- 80
2020-09-15 19:00:00 -- 13 Este 18 Este 0 -- -- 77
2020-09-15 18:00:00 -- 14 Este 20 Este 0 -- -- 78
2020-09-15 17:00:00 -- 17 Este 21 Este 0 -- -- 77
2020-09-15 16:00:00 -- 18 Este 23 Este 0 -- -- 76
2020-09-15 15:00:00 -- 20 Este 23 Este 0 -- -- 74
2020-09-15 14:00:00 -- 17 Este 20 Este 0 -- -- 74
2020-09-15 13:00:00 -- 18 Este 24 Este 0 -- -- 73
2020-09-15 12:00:00 -- 18 Este 22 Este 0 -- -- 71
2020-09-15 11:00:00 -- 16 Este 21 Este 0 -- -- 70
2020-09-15 10:00:00 -- 10 Nordeste 14 Nordeste 0 -- -- 71
2020-09-15 09:00:00 -- 6 Norte 15 Norte 0 -- -- 76
2020-09-15 08:00:00 -- 9 Norte 15 Norte 0 -- -- 77
2020-09-15 07:00:00 -- 8 Norte 13 Norte 0 -- -- 77
2020-09-15 06:00:00 -- 8 Norte 15 Norte 0 -- -- 77
2020-09-15 05:00:00 -- 8 Norte 14 Norte 0 -- -- 74
2020-09-15 04:00:00 -- 6 Norte 8 Norte 0 -- -- 77
2020-09-15 03:00:00 -- 4 Norte 8 Norte 0 -- -- 78
2020-09-15 02:00:00 -- 5 Noroeste 13 Norte 0 -- -- 76
2020-09-15 01:00:00 -- 7 Norte 13 Nordeste 0 -- -- 78
2020-09-15 00:00:00 -- 8 Nordeste 13 Nordeste 0 -- -- 78
2020-09-14 23:00:00 -- 9 Nordeste 18 Nordeste 0 -- -- 79
2020-09-14 22:00:00 -- 15 Nordeste 19 Nordeste 0 -- -- 80
2020-09-14 21:00:00 -- 9 Este 15 Este 0 -- -- 78
2020-09-14 20:00:00 -- 9 Este 22 Nordeste 0 -- -- 76
2020-09-14 19:00:00 -- 17 Nordeste 24 Nordeste 0 -- -- 73
2020-09-14 18:00:00 -- 15 Este 22 Nordeste 0 -- -- 73
2020-09-14 17:00:00 -- 13 Este 21 Nordeste 0 -- -- 70
2020-09-14 16:00:00 -- 9 Este 24 Nordeste 0 -- -- 72
2020-09-14 15:00:00 -- 12 Este 24 Nordeste 0 -- -- 70
2020-09-14 14:00:00 -- 12 Nordeste 21 Nordeste 0 -- -- 67
2020-09-14 13:00:00 -- 10 Nordeste 17 Nordeste 0 -- -- 67
2020-09-14 12:00:00 -- 12 Este 18 Nordeste 0 -- -- 68
2020-09-14 11:00:00 -- 8 Este 13 Nordeste 0 -- -- 63
2020-09-14 10:00:00 -- 4 Sudeste 10 Este 0 -- -- 63
2020-09-14 09:00:00 -- 4 Norte 7 Norte 0 -- -- 74
2020-09-14 08:00:00 -- 2 Norte 9 Nordeste 0 -- -- 73
2020-09-14 07:00:00 -- 5 Norte 9 Nordeste 0 -- -- 73
2020-09-14 06:00:00 -- 5 Nordeste 15 Nordeste 0 -- -- 68
2020-09-14 05:00:00 -- 9 Nordeste 14 Norte 0 -- -- 71
2020-09-14 04:00:00 -- 6 Norte 13 Nordeste 0 -- -- 73
2020-09-14 03:00:00 -- 9 Nordeste 21 Nordeste 0 -- -- 72
2020-09-14 02:00:00 -- 8 Nordeste 21 Nordeste 0 -- -- 70
2020-09-14 01:00:00 -- 16 Nordeste 26 Nordeste 0 -- -- 69
2020-09-14 00:00:00 -- 7 Norte 12 Norte 0 -- -- 72
2020-09-13 23:00:00 -- 5 Noroeste 8 Noroeste 0 -- -- 68
2020-09-13 22:00:00 -- 0 Calma 5 Noroeste 0 -- -- 71
2020-09-13 21:00:00 -- 0 Calma 5 Sur 0 -- -- 71
2020-09-13 20:00:00 -- 4 Sudeste 8 Este 0 -- -- 62
2020-09-13 19:00:00 -- 7 Este 17 Nordeste 0 -- -- 56
2020-09-13 18:00:00 -- 14 Este 26 Nordeste 0 -- -- 58
2020-09-13 17:00:00 -- 15 Este 27 Este 0 -- -- 62
2020-09-13 16:00:00 -- 18 Nordeste 32 Nordeste 0 -- -- 57
2020-09-13 15:00:00 -- 20 Este 35 Este 0 -- -- 56
2020-09-13 14:00:00 -- 22 Este 31 Este 0 -- -- 55
2020-09-13 13:00:00 -- 8 Nordeste 17 Nordeste 0 -- -- 52
2020-09-13 12:00:00 -- 9 Este 20 Nordeste 0 -- -- 64
2020-09-13 11:00:00 -- 9 Nordeste 20 Nordeste 0 -- -- 56
2020-09-13 10:00:00 -- 10 Nordeste 17 Este 0 -- -- 58
2020-09-13 09:00:00 -- 3 Norte 12 Nordeste 0 -- -- 66
2020-09-13 08:00:00 -- 5 Norte 9 Nordeste 0 -- -- 68
2020-09-13 07:00:00 -- 6 Nordeste 13 Nordeste 0 -- -- 68
2020-09-13 06:00:00 -- 8 Nordeste 13 Nordeste 0 -- -- 66
2020-09-13 05:00:00 -- 4 Norte 13 Nordeste 0 -- -- 68
2020-09-13 04:00:00 -- 6 Nordeste 11 Norte 0 -- -- 68
2020-09-13 03:00:00 -- 4 Norte 6 Nordeste 0 -- -- 70
2020-09-13 02:00:00 -- 5 Nordeste 22 Nordeste 0 -- -- 65
2020-09-13 01:00:00 -- 11 Nordeste 18 Nordeste 0 -- -- 62
2020-09-13 00:00:00 -- 7 Nordeste 16 Nordeste 0 -- -- 61
2020-09-12 23:00:00 -- 10 Nordeste 21 Nordeste 0 -- -- 57
2020-09-12 22:00:00 -- 14 Nordeste 23 Nordeste 0 -- -- 52
2020-09-12 21:00:00 -- 14 Nordeste 28 Nordeste 0 -- -- 49
2020-09-12 20:00:00 -- 15 Nordeste 30 Nordeste 0 -- -- 48
2020-09-12 19:00:00 -- 20 Nordeste 34 Nordeste 0 -- -- 46
2020-09-12 18:00:00 -- 20 Nordeste 34 Nordeste 0 -- -- 45
2020-09-12 17:00:00 -- 21 Este 35 Nordeste 0 -- -- 54
2020-09-12 16:00:00 -- 22 Este 32 Este 0 -- -- 52
2020-09-12 15:00:00 -- 26 Este 34 Nordeste 0 -- -- 50
2020-09-12 14:00:00 -- 19 Este 27 Este 0 -- -- 54
2020-09-12 13:00:00 -- 15 Este 23 Este 0 -- -- 65
2020-09-12 12:00:00 -- 15 Este 21 Este 0 -- -- 63
2020-09-12 11:00:00 -- 19 Este 25 Este 0 -- -- 54
2020-09-12 10:00:00 -- 21 Este 30 Este 0 -- -- 45
2020-09-12 09:00:00 -- 11 Nordeste 20 Nordeste 0 -- -- 41
2020-09-12 08:00:00 -- 12 Nordeste 19 Nordeste 0 -- -- 44
2020-09-12 07:00:00 -- 9 Nordeste 16 Nordeste 0 -- -- 46
2020-09-12 06:00:00 -- 11 Norte 15 Norte 0 -- -- 46
2020-09-12 05:00:00 -- 6 Nordeste 15 Nordeste 0 -- -- 49
2020-09-12 04:00:00 -- 10 Nordeste 17 Nordeste 0 -- -- 47
2020-09-12 03:00:00 -- 12 Norte 16 Norte 0 -- -- 48
2020-09-12 02:00:00 -- 9 Nordeste 11 Norte 0 -- -- 57
2020-09-12 01:00:00 -- 0 Calma 2 Nordeste 0 -- -- 62
2020-09-12 00:00:00 -- 0 Calma 3 Nordeste 0 -- -- 65
2020-09-11 23:00:00 -- 0 Calma 3 Nordeste 0 -- -- 66
2020-09-11 22:00:00 -- 0 Calma 9 Nordeste 0 -- -- 71
2020-09-11 21:00:00 -- 5 Nordeste 12 Nordeste 0 -- -- 73
2020-09-11 20:00:00 -- 10 Nordeste 14 Este 0 -- -- 74
2020-09-11 19:00:00 -- 15 Este 20 Este 0 -- -- 72
2020-09-11 18:00:00 -- 18 Este 21 Este 0 -- -- 69
2020-09-11 17:00:00 -- 18 Este 23 Este 0 -- -- 76
2020-09-11 16:00:00 -- 22 Este 24 Este 0 -- -- 77
2020-09-11 15:00:00 -- 19 Este 22 Este 0 -- -- 78
2020-09-11 14:00:00 -- 20 Este 27 Este 0 -- -- 75
2020-09-11 13:00:00 -- 24 Este 27 Este 0 -- -- 69
2020-09-11 12:00:00 -- 21 Este 25 Este 0 -- -- 67
2020-09-11 11:00:00 -- 21 Este 27 Nordeste 0 -- -- 73
2020-09-11 10:00:00 -- 17 Nordeste 25 Nordeste 0 -- -- 58
2020-09-11 09:00:00 -- 13 Nordeste 19 Nordeste 0 -- -- 55
2020-09-11 08:00:00 -- 11 Nordeste 19 Nordeste 0 -- -- 61
2020-09-11 07:00:00 -- 9 Nordeste 15 Nordeste 0 -- -- 64
2020-09-11 06:00:00 -- 11 Nordeste 14 Nordeste 0 -- -- 62
2020-09-11 05:00:00 -- 10 Nordeste 13 Nordeste 0 -- -- 69
2020-09-11 04:00:00 -- 3 Este 5 Nordeste 0 -- -- 72
2020-09-11 03:00:00 -- 2 Nordeste 5 Nordeste 0 -- -- 72
2020-09-11 02:00:00 -- 6 Nordeste 13 Nordeste 0 -- -- 73
2020-09-11 01:00:00 -- 0 Calma 10 Nordeste 0 -- -- 80
2020-09-11 00:00:00 -- 9 Nordeste 13 Este 0 -- -- 83
2020-09-10 23:00:00 -- 4 Nordeste 6 Nordeste 0 -- -- 85
2020-09-10 22:00:00 -- 5 Nordeste 6 Nordeste 0 -- -- 84
2020-09-10 21:00:00 -- 0 Calma 4 Oeste 0 -- -- 81
2020-09-10 20:00:00 -- 4 Oeste 6 Sudoeste 0 -- -- 76
2020-09-10 19:00:00 -- 6 Sudoeste 10 Oeste 0 -- -- 76
2020-09-10 18:00:00 -- 8 Sudoeste 11 Sudoeste 0 -- -- 76
2020-09-10 17:00:00 -- 9 Sudoeste 12 Oeste 0 -- -- 74
2020-09-10 16:00:00 -- 9 Oeste 13 Oeste 0 -- -- 70
2020-09-10 15:00:00 -- 10 Sudoeste 12 Sudoeste 0 -- -- 70
2020-09-10 14:00:00 -- 8 Oeste 13 Sudoeste 0 -- -- 65
2020-09-10 13:00:00 -- 12 Sudoeste 14 Sudoeste 0 -- -- 71
2020-09-10 12:00:00 -- 11 Oeste 13 Oeste 0 -- -- 70
2020-09-10 11:00:00 -- 5 Oeste 8 Sudoeste 0 -- -- 72
2020-09-10 10:00:00 -- 3 Oeste 5 Sudoeste 0 -- -- 68
2020-09-10 09:00:00 -- 0 Calma 5 Nordeste 0 -- -- 57
2020-09-10 08:00:00 -- 3 Noroeste 8 Oeste 0 -- -- 63
2020-09-10 07:00:00 -- 4 Sudoeste 7 Oeste 0 -- -- 64
2020-09-10 06:00:00 -- 0 Calma 3 Oeste 0 -- -- 66
2020-09-10 05:00:00 -- 2 Nordeste 12 Norte 0 -- -- 66
2020-09-10 04:00:00 -- 0 Calma 12 Nordeste 0 -- -- 74
2020-09-10 03:00:00 -- 9 Nordeste 15 Nordeste 0 -- -- 83
2020-09-10 02:00:00 -- 7 Nordeste 10 Nordeste 0 -- -- 82
2020-09-10 01:00:00 -- 7 Nordeste 9 Norte 0 -- -- 81
2020-09-10 00:00:00 -- 2 Norte 8 Nordeste 0 -- -- 80
2020-09-09 23:00:00 -- 0 Calma 4 Este 0 -- -- 80
2020-09-09 22:00:00 -- 0 Calma 7 Este 0 -- -- 79
2020-09-09 21:00:00 -- 6 Nordeste 13 Este 0 -- -- 77
2020-09-09 20:00:00 -- 13 Este 15 Este 0 -- -- 75
2020-09-09 19:00:00 -- 12 Este 17 Este 0 -- -- 72
2020-09-09 18:00:00 -- 13 Este 15 Este 0 -- -- 70
2020-09-09 17:00:00 -- 13 Este 17 Este 0 -- -- 70
2020-09-09 16:00:00 -- 15 Este 17 Este 0 -- -- 72
2020-09-09 15:00:00 -- 14 Este 21 Nordeste 0 -- -- 71
2020-09-09 14:00:00 -- 18 Este 23 Este 0 -- -- 71
2020-09-09 13:00:00 -- 20 Este 24 Este 0 -- -- 70
2020-09-09 12:00:00 -- 19 Este 24 Este 0 -- -- 73
2020-09-09 11:00:00 -- 18 Este 30 Nordeste 0 -- -- 71
2020-09-09 10:00:00 -- 16 Nordeste 23 Nordeste 0 -- -- 72
2020-09-09 09:00:00 -- 10 Nordeste 17 Nordeste 0 -- -- 78
2020-09-09 08:00:00 -- 12 Nordeste 20 Nordeste 0 -- -- 81
2020-09-09 07:00:00 -- 13 Nordeste 21 Nordeste 0 -- -- 80
2020-09-09 06:00:00 -- 13 Nordeste 19 Nordeste 0 -- -- 80
2020-09-09 05:00:00 -- 13 Nordeste 19 Nordeste 0 -- -- 80
2020-09-09 04:00:00 -- 12 Nordeste 21 Nordeste 0 -- -- 79
2020-09-09 03:00:00 -- 14 Nordeste 22 Nordeste 0 -- -- 79
2020-09-09 02:00:00 -- 13 Nordeste 21 Norte 0 -- -- 79
2020-09-09 01:00:00 -- 13 Nordeste 20 Nordeste 0 -- -- 80
2020-09-09 00:00:00 -- 13 Nordeste 23 Nordeste 0 -- -- 79
2020-09-08 23:00:00 -- 14 Nordeste 21 Nordeste 0 -- -- 78
2020-09-08 22:00:00 -- 14 Nordeste 21 Nordeste 0 -- -- 76
2020-09-08 21:00:00 -- 16 Nordeste 26 Nordeste 0 -- -- 76
2020-09-08 20:00:00 -- 17 Nordeste 31 Nordeste 0 -- -- 73
2020-09-08 19:00:00 -- 24 Nordeste 32 Nordeste 0 -- -- 72
2020-09-08 18:00:00 -- 19 Nordeste 27 Nordeste 0 -- -- 70
2020-09-08 17:00:00 -- 21 Este 30 Nordeste 0 -- -- 71
2020-09-08 16:00:00 -- 24 Este 35 Este 0 -- -- 73
2020-09-08 15:00:00 -- 25 Nordeste 37 Nordeste 0 -- -- 74
2020-09-08 14:00:00 -- 26 Nordeste 36 Este 0 -- -- 74
2020-09-08 13:00:00 -- 28 Nordeste 40 Nordeste 0 -- -- 74
2020-09-08 12:00:00 -- 25 Nordeste 35 Nordeste 0 -- -- 76
2020-09-08 11:00:00 -- 24 Nordeste 32 Este 0 -- -- 77
2020-09-08 10:00:00 -- 19 Nordeste 30 Nordeste 0 -- -- 77
2020-09-08 09:00:00 -- 15 Nordeste 22 Nordeste 0 -- -- 80
2020-09-08 08:00:00 -- 15 Nordeste 21 Nordeste 0 -- -- 83
2020-09-08 07:00:00 -- 12 Nordeste 26 Nordeste 0 -- -- 83
2020-09-08 06:00:00 -- 16 Nordeste 23 Nordeste 0 -- -- 83
2020-09-08 05:00:00 -- 15 Nordeste 23 Nordeste 0 -- -- 82
2020-09-08 04:00:00 -- 12 Nordeste 22 Nordeste 0 -- -- 80
2020-09-08 03:00:00 -- 12 Nordeste 16 Nordeste 0 -- -- 80
2020-09-08 02:00:00 -- 10 Norte 17 Norte 0 -- -- 84
2020-09-08 01:00:00 -- 17 Nordeste 28 Nordeste 0 -- -- 87
2020-09-08 00:00:00 -- 22 Nordeste 31 Nordeste 0 -- -- 88
2020-09-07 23:00:00 -- 23 Nordeste 31 Nordeste 0 -- -- 88
2020-09-07 22:00:00 -- 14 Nordeste 18 Nordeste 0 -- -- 86
2020-09-07 21:00:00 -- 6 Nordeste 9 Nordeste 0 -- -- 83
2020-09-07 20:00:00 -- 5 Sudoeste 7 Sudoeste 0 -- -- 81
2020-09-07 19:00:00 -- 4 Sudoeste 11 Oeste 0 -- -- 83
2020-09-07 18:00:00 -- 9 Oeste 16 Sudoeste 0 -- -- 84
2020-09-07 17:00:00 -- 14 Sudoeste 18 Oeste 0 -- -- 84
2020-09-07 16:00:00 -- 15 Sudoeste 17 Sudoeste 0 -- -- 84
2020-09-07 15:00:00 -- 14 Sudoeste 16 Sudoeste 0 -- -- 83
2020-09-07 14:00:00 -- 13 Sudoeste 15 Oeste 0 -- -- 81
2020-09-07 13:00:00 -- 13 Oeste 14 Oeste 0 -- -- 80
2020-09-07 12:00:00 -- 11 Oeste 12 Oeste 0 -- -- 78
2020-09-07 11:00:00 -- 10 Oeste 12 Oeste 0 -- -- 77
2020-09-07 10:00:00 -- 10 Sudoeste 11 Sudoeste 0 -- -- 76
2020-09-07 09:00:00 -- 6 Noroeste 11 Noroeste 0 -- -- 71
2020-09-07 08:00:00 -- 8 Noroeste 10 Noroeste 0 -- -- 75
2020-09-07 07:00:00 -- 8 Noroeste 10 Noroeste 0 -- -- 75
2020-09-07 06:00:00 -- 5 Noroeste 10 Noroeste 0 -- -- 76
2020-09-07 05:00:00 -- 2 Sudoeste 8 Nordeste 0 -- -- 76
2020-09-07 04:00:00 -- 3 Nordeste 8 Nordeste 0 -- -- 76
2020-09-07 03:00:00 -- 7 Nordeste 15 Nordeste 0 -- -- 75
2020-09-07 02:00:00 -- 11 Nordeste 15 Nordeste 0 -- -- 76
2020-09-07 01:00:00 -- 6 Nordeste 12 Nordeste 0 -- -- 76
2020-09-07 00:00:00 -- 9 Nordeste 12 Nordeste 0 -- -- 75
2020-09-06 23:00:00 -- 7 Nordeste 11 Nordeste 0 -- -- 74
2020-09-06 22:00:00 -- 8 Nordeste 14 Este 0 -- -- 73
2020-09-06 21:00:00 -- 13 Este 15 Este 0 -- -- 75
2020-09-06 20:00:00 -- 11 Este 15 Nordeste 0 -- -- 72
2020-09-06 19:00:00 -- 9 Nordeste 12 Nordeste 0 -- -- 73
2020-09-06 18:00:00 -- 9 Este 14 Este 0 -- -- 72
2020-09-06 17:00:00 -- 13 Este 17 Este 0 -- -- 73
2020-09-06 16:00:00 -- 15 Este 19 Este 0 -- -- 73
2020-09-06 15:00:00 -- 17 Este 24 Este 0 -- -- 72
2020-09-06 14:00:00 -- 17 Este 26 Nordeste 0 -- -- 72
2020-09-06 13:00:00 -- 17 Este 27 Este 0 -- -- 70
2020-09-06 12:00:00 -- 20 Nordeste 27 Este 0 -- -- 73
2020-09-06 11:00:00 -- 20 Este 29 Este 0 -- -- 72
2020-09-06 10:00:00 -- 15 Este 21 Este 0 -- -- 76
2020-09-06 09:00:00 -- 12 Nordeste 17 Nordeste 0 -- -- 76
2020-09-06 08:00:00 -- 12 Nordeste 15 Nordeste 0 -- -- 77
2020-09-06 07:00:00 -- 8 Nordeste 12 Nordeste 0 -- -- 75
2020-09-06 06:00:00 -- 10 Nordeste 16 Nordeste 0 -- -- 72
2020-09-06 05:00:00 -- 12 Nordeste 18 Nordeste 0 -- -- 71
2020-09-06 04:00:00 -- 12 Nordeste 17 Nordeste 0 -- -- 73
2020-09-06 03:00:00 -- 9 Nordeste 17 Nordeste 0 -- -- 72
2020-09-06 02:00:00 -- 10 Nordeste 14 Nordeste 0 -- -- 73
2020-09-06 01:00:00 -- 12 Nordeste 17 Norte 0 -- -- 72
2020-09-06 00:00:00 -- 9 Nordeste 15 Norte 0 -- -- 72
2020-09-05 23:00:00 -- 8 Nordeste 13 Nordeste 0 -- -- 73
2020-09-05 22:00:00 -- 9 Nordeste 14 Nordeste 0 -- -- 73
2020-09-05 21:00:00 -- 12 Nordeste 19 Este 0 -- -- 74
2020-09-05 20:00:00 -- 16 Este 21 Este 0 -- -- 75
2020-09-05 19:00:00 -- 18 Este 20 Este 0 -- -- 75
2020-09-05 18:00:00 -- 17 Este 20 Este 0 -- -- 76
2020-09-05 17:00:00 -- 18 Este 21 Este 0 -- -- 74
2020-09-05 16:00:00 -- 20 Este 23 Nordeste 0 -- -- 73
2020-09-05 15:00:00 -- 21 Este 25 Nordeste 0 -- -- 71
2020-09-05 14:00:00 -- 22 Este 29 Este 0 -- -- 71
2020-09-05 13:00:00 -- 22 Este 29 Este 0 -- -- 70
2020-09-05 12:00:00 -- 23 Este 31 Este 0 -- -- 71
2020-09-05 11:00:00 -- 21 Este 27 Este 0 -- -- 73
2020-09-05 10:00:00 -- 14 Nordeste 21 Nordeste 0 -- -- 77
2020-09-05 09:00:00 -- 14 Nordeste 19 Nordeste 0 -- -- 80
2020-09-05 08:00:00 -- 15 Nordeste 20 Nordeste 0 -- -- 79
2020-09-05 07:00:00 -- 12 Nordeste 19 Nordeste 0 -- -- 79
2020-09-05 06:00:00 -- 12 Nordeste 19 Nordeste 0 -- -- 80
2020-09-05 05:00:00 -- 12 Nordeste 18 Nordeste 0 -- -- 79
2020-09-05 04:00:00 -- 12 Nordeste 22 Nordeste 0 -- -- 78
2020-09-05 03:00:00 -- 11 Nordeste 17 Norte 0 -- -- 76
2020-09-05 02:00:00 -- 14 Nordeste 23 Nordeste 0 -- -- 75
2020-09-05 01:00:00 -- 12 Nordeste 22 Nordeste 0 -- -- 74
2020-09-05 00:00:00 -- 13 Nordeste 19 Nordeste 0 -- -- 72
2020-09-04 23:00:00 -- 11 Nordeste 20 Nordeste 0 -- -- 71
2020-09-04 22:00:00 -- 11 Nordeste 18 Nordeste 0 -- -- 70
2020-09-04 21:00:00 -- 12 Nordeste 23 Nordeste 0 -- -- 71
2020-09-04 20:00:00 -- 12 Nordeste 25 Nordeste 0 -- -- 69
2020-09-04 19:00:00 -- 10 Este 20 Este 0 -- -- 68
2020-09-04 18:00:00 -- 6 Nordeste 12 Este 0 -- -- 62
2020-09-04 17:00:00 -- 8 Nordeste 15 Nordeste 0 -- -- 64
2020-09-04 16:00:00 -- 6 Nordeste 11 Nordeste 0 -- -- 61
2020-09-04 15:00:00 -- 5 Este 11 Nordeste 0 -- -- 61
2020-09-04 14:00:00 -- 7 Nordeste 12 Nordeste 0 -- -- 59
2020-09-04 13:00:00 -- 3 Nordeste 10 Este 0 -- -- 54
2020-09-04 12:00:00 -- 8 Nordeste 23 Este 0 -- -- 59
2020-09-04 11:00:00 -- 16 Este 23 Este 0 -- -- 64
2020-09-04 10:00:00 -- 10 Nordeste 16 Nordeste 0 -- -- 69
2020-09-04 09:00:00 -- 10 Nordeste 16 Nordeste 0 -- -- 72
2020-09-04 08:00:00 -- 9 Norte 21 Norte 0 -- -- 80
2020-09-04 07:00:00 -- 8 Norte 18 Nordeste 0 -- -- 81
2020-09-04 06:00:00 -- 8 Nordeste 16 Nordeste 0 -- -- 81
2020-09-04 05:00:00 -- 13 Nordeste 24 Nordeste 0 -- -- 80
2020-09-04 04:00:00 -- 17 Nordeste 28 Nordeste 0 -- -- 81
2020-09-04 03:00:00 -- 12 Nordeste 19 Nordeste 0 -- -- 80
2020-09-04 02:00:00 -- 11 Nordeste 22 Nordeste 0 -- -- 78
2020-09-04 01:00:00 -- 14 Nordeste 27 Nordeste 0 -- -- 75
2020-09-04 00:00:00 -- 19 Nordeste 31 Nordeste 0 -- -- 70
2020-09-03 23:00:00 -- 21 Nordeste 37 Nordeste 0 -- -- 62
2020-09-03 22:00:00 -- 20 Nordeste 33 Nordeste 0 -- -- 64
2020-09-03 21:00:00 -- 22 Nordeste 35 Nordeste 0 -- -- 72
2020-09-03 20:00:00 -- 27 Nordeste 43 Nordeste 0 -- -- 70
2020-09-03 19:00:00 -- 32 Nordeste 46 Nordeste 0 -- -- 68
2020-09-03 18:00:00 -- 32 Nordeste 49 Nordeste 0 -- -- 70
2020-09-03 17:00:00 -- 28 Nordeste 44 Nordeste 0 -- -- 70
2020-09-03 16:00:00 -- 32 Nordeste 46 Nordeste 0 -- -- 71
2020-09-03 15:00:00 -- 31 Nordeste 44 Nordeste 0 -- -- 72
2020-09-03 14:00:00 -- 35 Nordeste 45 Nordeste 0 -- -- 71
2020-09-03 13:00:00 -- 34 Nordeste 45 Nordeste 0 -- -- 71
2020-09-03 12:00:00 -- 31 Nordeste 43 Nordeste 0 -- -- 71
2020-09-03 11:00:00 -- 26 Nordeste 43 Nordeste 0 -- -- 72
2020-09-03 10:00:00 -- 24 Nordeste 33 Nordeste 0 -- -- 73
2020-09-03 09:00:00 -- 16 Nordeste 26 Nordeste 0 -- -- 75
2020-09-03 08:00:00 -- 13 Nordeste 23 Nordeste 0 -- -- 77
2020-09-03 07:00:00 -- 13 Nordeste 22 Nordeste 0 -- -- 76
2020-09-03 06:00:00 -- 14 Nordeste 22 Norte 0 -- -- 75
2020-09-03 05:00:00 -- 13 Nordeste 22 Nordeste 0 -- -- 74
2020-09-03 04:00:00 -- 14 Nordeste 22 Nordeste 0 -- -- 73
2020-09-03 03:00:00 -- 15 Nordeste 23 Nordeste 0 -- -- 71
2020-09-03 02:00:00 -- 10 Nordeste 15 Nordeste 0 -- -- 67
2020-09-03 01:00:00 -- 7 Nordeste 17 Nordeste 0 -- -- 64
2020-09-03 00:00:00 -- 10 Nordeste 15 Nordeste 0 -- -- 64
2020-09-02 23:00:00 -- 10 Nordeste 12 Este 0 -- -- 74
2020-09-02 22:00:00 -- 9 Nordeste 17 Este 0 -- -- 71
2020-09-02 21:00:00 -- 15 Este 25 Este 0 -- -- 77
2020-09-02 20:00:00 -- 22 Este 24 Este 0 -- -- 78
2020-09-02 19:00:00 -- 17 Este 20 Nordeste 0 -- -- 74
2020-09-02 18:00:00 -- 19 Este 23 Este 0 -- -- 74
2020-09-02 17:00:00 -- 22 Este 24 Este 0 -- -- 74
2020-09-02 16:00:00 -- 22 Este 23 Este 0 -- -- 78
2020-09-02 15:00:00 -- 18 Este 19 Este 0 -- -- 81
2020-09-02 14:00:00 -- 16 Este 19 Este 0 -- -- 82
2020-09-02 13:00:00 -- 13 Este 15 Este 0 -- -- 81
2020-09-02 12:00:00 -- 12 Este 13 Este 0 -- -- 83
2020-09-02 11:00:00 -- 8 Este 14 Este 0 -- -- 81
2020-09-02 10:00:00 -- 5 Sudeste 6 Sudeste 0 -- -- 74
2020-09-02 09:00:00 -- 0 Calma 7 Norte 0 -- -- 78
2020-09-02 08:00:00 -- 0 Calma 8 Noroeste 0 -- -- 84
2020-09-02 07:00:00 -- 5 Norte 12 Nordeste 0 -- -- 85
2020-09-02 06:00:00 -- 8 Nordeste 14 Norte 0 -- -- 85
2020-09-02 05:00:00 -- 8 Nordeste 13 Nordeste 0 -- -- 84
2020-09-02 04:00:00 -- 8 Nordeste 12 Nordeste 0 -- -- 87
2020-09-02 03:00:00 -- 4 Nordeste 6 Este 0 -- -- 88
2020-09-02 02:00:00 -- 5 Nordeste 6 Este 0 -- -- 87
2020-09-02 01:00:00 -- 5 Noroeste 9 Noroeste 0 -- -- 87
2020-09-02 00:00:00 -- 6 Oeste 17 Oeste 0 -- -- 87
2020-09-01 23:00:00 -- 9 Oeste 13 Oeste 0 -- -- 84
2020-09-01 22:00:00 -- 10 Oeste 12 Oeste 0 -- -- 84
2020-09-01 21:00:00 -- 10 Oeste 14 Oeste 0 -- -- 82
2020-09-01 20:00:00 -- 9 Oeste -- -- 0 -- -- 77
2020-09-01 19:00:00 -- 5 Oeste -- -- 0 -- -- 72
2020-09-01 18:00:00 -- 0 Calma -- -- 0 -- -- 71
2020-09-01 17:00:00 -- 0 Calma 3 Nordeste 0 -- -- 68
2020-09-01 16:00:00 -- 3 Nordeste 10 Nordeste 0 -- -- 66
2020-09-01 15:00:00 -- 10 Nordeste 14 Este 0 -- -- 69
2020-09-01 14:00:00 -- 13 Este 15 Este 0 -- -- 70
2020-09-01 13:00:00 -- 12 Este 21 Este 0 -- -- 74
2020-09-01 12:00:00 -- 21 Este 27 Este 0 -- -- 71
2020-09-01 11:00:00 -- 18 Nordeste 26 Nordeste 0 -- -- 64
2020-09-01 10:00:00 -- 15 Nordeste 23 Nordeste 0 -- -- 70
2020-09-01 09:00:00 -- 15 Nordeste 24 Nordeste 0 -- -- 72
2020-09-01 08:00:00 -- 10 Nordeste 14 Nordeste 0 -- -- 75
2020-09-01 07:00:00 -- 10 Nordeste 16 Nordeste 0 -- -- 74
2020-09-01 06:00:00 -- 9 Nordeste 16 Nordeste 0 -- -- 72
2020-09-01 05:00:00 -- 12 Nordeste 17 Nordeste 0 -- -- 69
2020-09-01 04:00:00 -- 12 Nordeste 22 Nordeste 0 -- -- 68
2020-09-01 03:00:00 -- 14 Nordeste 21 Nordeste 0 -- -- 65
2020-09-01 02:00:00 -- 15 Nordeste 27 Nordeste 0 -- -- 64
2020-09-01 01:00:00 -- 15 Nordeste 23 Nordeste 0 -- -- 67
2020-09-01 00:00:00 -- 12 Nordeste 18 Nordeste 0 -- -- 66
2020-08-31 23:00:00 -- 13 Nordeste 25 Nordeste 0 -- -- 66
2020-08-31 22:00:00 -- 16 Nordeste 26 Nordeste 0 -- -- 64
2020-08-31 21:00:00 -- 18 Nordeste 33 Este 0 -- -- 66
2020-08-31 20:00:00 -- 22 Nordeste 37 Nordeste 0 -- -- 65
2020-08-31 19:00:00 -- 25 Nordeste 32 Nordeste 0 -- -- 65
2020-08-31 18:00:00 -- 25 Nordeste 33 Nordeste 0 -- -- 70
2020-08-31 17:00:00 -- 29 Nordeste 37 Nordeste 0 -- -- 69
2020-08-31 16:00:00 -- 33 Nordeste 39 Nordeste 0 -- -- 68
2020-08-31 15:00:00 -- 30 Nordeste 37 Nordeste 0 -- -- 68
2020-08-31 14:00:00 -- 31 Este 39 Nordeste 0 -- -- 67
2020-08-31 13:00:00 -- 30 Nordeste 42 Este 0 -- -- 63
2020-08-31 12:00:00 -- 30 Nordeste 39 Este 0 -- -- 63
2020-08-31 11:00:00 -- 28 Nordeste 40 Nordeste 0 -- -- 63
2020-08-31 10:00:00 -- 24 Nordeste 35 Nordeste 0 -- -- 67
2020-08-31 09:00:00 -- 19 Nordeste 28 Nordeste 0 -- -- 72
2020-08-31 08:00:00 -- 15 Nordeste 23 Nordeste 0 -- -- 79
2020-08-31 07:00:00 -- 13 Nordeste 20 Nordeste 0 -- -- 79
2020-08-31 06:00:00 -- 15 Nordeste 22 Nordeste 0 -- -- 80
2020-08-31 05:00:00 -- 13 Nordeste 24 Nordeste 0 -- -- 81
2020-08-31 04:00:00 -- 14 Nordeste 19 Nordeste 0 -- -- 80
2020-08-31 03:00:00 -- 13 Nordeste 22 Nordeste 0 -- -- 79
2020-08-31 02:00:00 -- 12 Nordeste 21 Nordeste 0 -- -- 77
2020-08-31 01:00:00 -- 14 Nordeste 22 Nordeste 0 -- -- 76
2020-08-31 00:00:00 -- 13 Nordeste 18 Nordeste 0 -- -- 73
2020-08-30 23:00:00 -- 8 Nordeste 14 Nordeste 0 -- -- 70
2020-08-30 22:00:00 -- 10 Nordeste 16 Nordeste 0 -- -- 68
2020-08-30 21:00:00 -- 11 Nordeste 17 Este 0 -- -- 70
2020-08-30 20:00:00 -- 11 Este 18 Nordeste 0 -- -- 66
2020-08-30 19:00:00 -- 16 Este 20 Nordeste 0 -- -- 67
2020-08-30 18:00:00 -- 15 Este 18 Este 0 -- -- 66
2020-08-30 17:00:00 -- 18 Este 23 Este 0 -- -- 73
2020-08-30 16:00:00 -- 23 Este 27 Este 0 -- -- 72
2020-08-30 15:00:00 -- 26 Este 31 Este 0 -- -- 74
2020-08-30 14:00:00 -- 29 Este 39 Nordeste 0 -- -- 74
2020-08-30 13:00:00 -- 30 Nordeste 42 Este 0 -- -- 69
2020-08-30 12:00:00 -- 33 Nordeste 48 Nordeste 0 -- -- 71
2020-08-30 11:00:00 -- 36 Nordeste 54 Nordeste 0 -- -- 66
2020-08-30 10:00:00 -- 35 Nordeste 52 Nordeste 0 -- -- 64
2020-08-30 09:00:00 -- 34 Nordeste 54 Nordeste 0 -- -- 59
2020-08-30 08:00:00 -- 25 Nordeste 41 Nordeste 0 -- -- 50
2020-08-30 07:00:00 -- 16 Nordeste 23 Norte 0 -- -- 38
2020-08-30 06:00:00 -- 14 Norte 24 Norte 0 -- -- 28
2020-08-30 05:00:00 -- 13 Norte 39 Norte 0 -- -- 32
2020-08-30 04:00:00 -- 15 Nordeste 26 Norte 0 -- -- 26
2020-08-30 03:00:00 -- 7 Noroeste 24 Norte 0 -- -- 32
2020-08-30 02:00:00 -- 13 Noroeste 23 Noroeste 0 -- -- 25
2020-08-30 01:00:00 -- 10 Oeste 14 Oeste 0 -- -- 60
2020-08-30 00:00:00 -- 8 Oeste 12 Oeste 0 -- -- 75
2020-08-29 23:00:00 -- 9 Oeste 31 Oeste 0 -- -- 74
2020-08-29 22:00:00 -- 12 Oeste 20 Oeste 0 -- -- 75
2020-08-29 21:00:00 -- 3 Norte 16 Nordeste 0 -- -- 67
2020-08-29 20:00:00 -- 8 Nordeste 27 Sudeste 0 -- -- 62
2020-08-29 19:00:00 -- 14 Sur 28 Oeste 0 -- -- 65
2020-08-29 18:00:00 -- 12 Sur 36 Sudoeste 0 -- -- 57
2020-08-29 17:00:00 -- 29 Sudoeste 33 Sudoeste 0 -- -- 60
2020-08-29 16:00:00 -- 22 Oeste 46 Sudoeste 0 -- -- 59
2020-08-29 15:00:00 -- 27 Sudoeste 47 Sudoeste 0 -- -- 64
2020-08-29 14:00:00 -- 30 Sudoeste 42 Sudoeste 0 -- -- 61
2020-08-29 13:00:00 -- 21 Oeste 31 Oeste 0 -- -- 68
2020-08-29 12:00:00 -- 25 Oeste 36 Oeste 0 -- -- 62
2020-08-29 11:00:00 -- 20 Oeste 24 Oeste 0 -- -- 74
2020-08-29 10:00:00 -- 15 Oeste 23 Sudoeste 0 -- -- 73
2020-08-29 09:00:00 -- 17 Oeste 28 Sudoeste 0 -- -- 74
2020-08-29 08:00:00 -- 13 Oeste 27 Oeste 0 -- -- 73
2020-08-29 07:00:00 -- 16 Oeste 22 Oeste 0 -- -- 72
2020-08-29 06:00:00 -- 8 Oeste 28 Oeste 0 -- -- 78
2020-08-29 05:00:00 -- 13 Oeste 21 Noroeste 0 -- -- 80
2020-08-29 04:00:00 -- 7 Oeste 20 Oeste 0 -- -- 81
2020-08-29 03:00:00 -- 14 Oeste 32 Oeste 0 -- -- 81
2020-08-29 02:00:00 -- 23 Oeste 31 Oeste 0 -- -- 81
2020-08-29 01:00:00 -- 15 Oeste 44 Sudoeste 0 -- -- 82
2020-08-29 00:00:00 -- 21 Oeste 32 Oeste 0 -- -- 83
2020-08-28 23:00:00 -- 24 Oeste 33 Sudoeste 0 -- -- 81
2020-08-28 22:00:00 -- 25 Oeste 44 Oeste 0 -- -- 67
2020-08-28 21:00:00 -- 27 Oeste 55 Oeste 0 -- -- 68
2020-08-28 20:00:00 -- 31 Oeste 50 Oeste 0 -- -- 58
2020-08-28 19:00:00 -- 26 Oeste 57 Sudoeste 0 -- -- 61
2020-08-28 18:00:00 -- 23 Oeste 54 Sudoeste 0 -- -- 63
2020-08-28 17:00:00 -- 32 Oeste 45 Oeste 0 -- -- 66
2020-08-28 16:00:00 -- 23 Oeste 37 Oeste 0 -- -- 68
2020-08-28 15:00:00 -- 24 Oeste 35 Sudoeste 0 -- -- 69
2020-08-28 14:00:00 -- 23 Oeste 32 Oeste 0 -- -- 71
2020-08-28 13:00:00 -- 7 Oeste 31 Oeste 0 -- -- 72
2020-08-28 12:00:00 -- 24 Oeste 34 Oeste 0 -- -- 75
2020-08-28 11:00:00 -- 14 Oeste 21 Sudoeste 0 -- -- 85
2020-08-28 10:00:00 -- 14 Oeste 17 Oeste 0 -- -- 90
2020-08-28 09:00:00 -- 9 Oeste 10 Oeste 0 -- -- 85
2020-08-28 08:00:00 -- 8 Oeste 13 Oeste 0 -- -- 83
2020-08-28 07:00:00 -- 10 Oeste 12 Oeste 0 -- -- 77
2020-08-28 06:00:00 -- 8 Oeste 11 Oeste 0 -- -- 80
2020-08-28 05:00:00 -- 6 Oeste 11 Oeste 0 -- -- 89
2020-08-28 04:00:00 -- 7 Oeste 10 Oeste 0 -- -- 91
2020-08-28 03:00:00 -- 6 Oeste 12 Oeste 0 -- -- 87
2020-08-28 02:00:00 -- 5 Oeste 8 Oeste 0 -- -- 88
2020-08-28 01:00:00 -- 5 Noroeste 9 Noroeste 0 -- -- 88
2020-08-28 00:00:00 -- 5 Noroeste 8 Noroeste 0 -- -- 90
2020-08-27 23:00:00 -- 3 Noroeste 15 Oeste 0 -- -- 89
2020-08-27 22:00:00 -- 13 Oeste 15 Oeste 0 -- -- 90
2020-08-27 21:00:00 -- 12 Oeste 15 Oeste 0 -- -- 91
2020-08-27 20:00:00 -- 12 Oeste 13 Oeste 0 -- -- 88
2020-08-27 19:00:00 -- 10 Oeste 12 Oeste 0 -- -- 87
2020-08-27 18:00:00 -- 9 Oeste 13 Oeste 0 -- -- 86
2020-08-27 17:00:00 -- 11 Oeste 15 Sudoeste 0 -- -- 87
2020-08-27 16:00:00 -- 12 Sudoeste 13 Oeste 0 -- -- 88
2020-08-27 15:00:00 -- 9 Oeste 12 Oeste 0 -- -- 90
2020-08-27 14:00:00 -- 4 Sudoeste 11 Sudoeste 0 -- -- 91
2020-08-27 13:00:00 -- 10 Oeste 12 Sudoeste 0 -- -- 95
2020-08-27 12:00:00 -- 8 Sudoeste 11 Sudoeste 0 -- -- 94
2020-08-27 11:00:00 -- 10 Oeste 13 Oeste 0 -- -- 96
2020-08-27 10:00:00 -- 7 Oeste 10 Sudoeste 0 -- -- 96
2020-08-27 09:00:00 -- 0 Calma 5 Este 0 -- -- 94
2020-08-27 08:00:00 -- 0 Calma 5 Sudoeste 0 -- -- 93
2020-08-27 07:00:00 -- 3 Sudoeste 7 Oeste 0 -- -- 89
2020-08-27 06:00:00 -- 3 Oeste 4 Oeste 0 -- -- 88
2020-08-27 05:00:00 -- 0 Calma 6 Nordeste 0 -- -- 87
2020-08-27 04:00:00 -- 4 Nordeste 10 Noroeste 0 -- -- 85
2020-08-27 03:00:00 -- 5 Noroeste 9 Noroeste 0 -- -- 85
2020-08-27 02:00:00 -- 6 Noroeste 9 Noroeste 0 -- -- 85
2020-08-27 01:00:00 -- 3 Noroeste 13 Este 0 -- -- 88
2020-08-27 00:00:00 -- 6 Este 9 Este 0 -- -- 88
2020-08-26 23:00:00 -- 0 Calma 8 Oeste 0 -- -- 85
2020-08-26 22:00:00 -- 8 Oeste 11 Oeste 0 -- -- 88
2020-08-26 21:00:00 -- 10 Oeste 13 Oeste 0 -- -- 89
2020-08-26 20:00:00 -- 12 Oeste 17 Oeste 0 -- -- 86
2020-08-26 19:00:00 -- 13 Oeste 15 Oeste 0 -- -- 85
2020-08-26 18:00:00 -- 11 Oeste 14 Oeste 0 -- -- 85
2020-08-26 17:00:00 -- 10 Oeste 12 Sudoeste 0 -- -- 84
2020-08-26 16:00:00 -- 6 Sudoeste 8 Sudoeste 0 -- -- 83
2020-08-26 15:00:00 -- 3 Sur 4 Sur 0 -- -- 80
2020-08-26 14:00:00 -- 3 Sudeste 5 Este 0 -- -- 76
2020-08-26 13:00:00 -- 4 Este 6 Este 0 -- -- 77
2020-08-26 12:00:00 -- 5 Este 8 Sudeste 0 -- -- 79
2020-08-26 11:00:00 -- 3 Sudeste 5 Sudeste 0 -- -- 72
2020-08-26 10:00:00 -- 3 Este 6 Este 0 -- -- 76
2020-08-26 09:00:00 -- 3 Este 10 Noroeste 0 -- -- 76
2020-08-26 08:00:00 -- 7 Noroeste 12 Noroeste 0 -- -- 83
2020-08-26 07:00:00 -- 8 Noroeste 10 Noroeste 0 -- -- 87
2020-08-26 06:00:00 -- 0 Calma 8 Noroeste 0 -- -- 88
2020-08-26 05:00:00 -- 7 Noroeste 12 Noroeste 0 -- -- 83
2020-08-26 04:00:00 -- 4 Oeste 7 Noroeste 0 -- -- 87
2020-08-26 03:00:00 -- 6 Oeste 11 Oeste 0 -- -- 84
2020-08-26 02:00:00 -- 7 Noroeste 9 Oeste 0 -- -- 86
2020-08-26 01:00:00 -- 3 Norte 14 Este 0 -- -- 84
2020-08-26 00:00:00 -- 10 Este 12 Este 0 -- -- 86
2020-08-25 23:00:00 -- 3 Nordeste 4 Nordeste 0 -- -- 85
2020-08-25 22:00:00 -- 0 Calma 5 Oeste 0 -- -- 84
2020-08-25 21:00:00 -- 4 Oeste 5 Oeste 0 -- -- 85
2020-08-25 20:00:00 -- 3 Oeste 6 Este 0 -- -- 77
2020-08-25 19:00:00 -- 8 Este 10 Este 0 -- -- 80
2020-08-25 18:00:00 -- 11 Este 17 Este 0 -- -- 79
2020-08-25 17:00:00 -- 14 Este 17 Este 0 -- -- 80
2020-08-25 16:00:00 -- 17 Este 18 Este 0 -- -- 84
2020-08-25 15:00:00 -- 15 Este 17 Este 0 -- -- 85
2020-08-25 14:00:00 -- 13 Este 15 Este 0 -- -- 83
2020-08-25 13:00:00 -- 13 Este 18 Este 0 -- -- 82
2020-08-25 12:00:00 -- 15 Este 18 Este 0 -- -- 81
2020-08-25 11:00:00 -- 15 Este 16 Este 0 -- -- 79
2020-08-25 10:00:00 -- 9 Este 13 Nordeste 0 -- -- 86
2020-08-25 09:00:00 -- 7 Este 9 Nordeste 0 -- -- 85
2020-08-25 08:00:00 -- 4 Norte 12 Este 0 -- -- 90
2020-08-25 07:00:00 -- 9 Este 12 Este 0 -- -- 89
2020-08-25 06:00:00 -- 4 Nordeste 15 Este 0 -- -- 91
2020-08-25 05:00:00 -- 6 Nordeste 9 Nordeste 0 -- -- 91
2020-08-25 04:00:00 -- 6 Nordeste 15 Nordeste 0 -- -- 90
2020-08-25 03:00:00 -- 13 Nordeste 17 Este 0 -- -- 89
2020-08-25 02:00:00 -- 13 Nordeste 17 Nordeste 0 -- -- 88
2020-08-25 01:00:00 -- 11 Nordeste 14 Nordeste 0 -- -- 88
2020-08-25 00:00:00 -- 9 Nordeste 17 Nordeste 0 -- -- 87
2020-08-24 23:00:00 -- 13 Nordeste 18 Nordeste 0 -- -- 87
2020-08-24 22:00:00 -- 12 Nordeste 19 Este 0 -- -- 86
2020-08-24 21:00:00 -- 14 Este 17 Este 0 -- -- 85
2020-08-24 20:00:00 -- 17 Este 18 Este 0 -- -- 82
2020-08-24 19:00:00 -- 17 Este 19 Este 0 -- -- 81
2020-08-24 18:00:00 -- 17 Este 18 Este 0 -- -- 80
2020-08-24 17:00:00 -- 15 Este 18 Este 0 -- -- 78
2020-08-24 16:00:00 -- 17 Este 21 Nordeste 0 -- -- 79
2020-08-24 15:00:00 -- 21 Este 22 Nordeste 0 -- -- 79
2020-08-24 14:00:00 -- 17 Este 19 Este 0 -- -- 80
2020-08-24 13:00:00 -- 14 Este 17 Este 0 -- -- 79
2020-08-24 12:00:00 -- 14 Este 15 Este 0 -- -- 83
2020-08-24 11:00:00 -- 9 Este 12 Este 0 -- -- 83
2020-08-24 10:00:00 -- 0 Calma 6 Nordeste 0 -- -- 89
2020-08-24 09:00:00 -- 0 Calma 5 Noroeste 0 -- -- 90
2020-08-24 08:00:00 -- 3 Oeste 12 Nordeste 0 -- -- 87
2020-08-24 07:00:00 -- 7 Nordeste 15 Nordeste 0 -- -- 86
2020-08-24 06:00:00 -- 8 Nordeste 12 Nordeste 0 -- -- 87
2020-08-24 05:00:00 -- 8 Nordeste 16 Nordeste 0 -- -- 89
2020-08-24 04:00:00 -- 14 Nordeste 19 Nordeste 0 -- -- 90
2020-08-24 03:00:00 -- 14 Nordeste 20 Nordeste 0 -- -- 90
2020-08-24 02:00:00 -- 15 Este 26 Este 0 -- -- 92
2020-08-24 01:00:00 -- 0 Calma 4 Este 0 -- -- 87
2020-08-24 00:00:00 -- 0 Calma 0 Calma 0 -- -- 86
2020-08-23 23:00:00 -- 0 Calma 4 Noroeste 0 -- -- 87
2020-08-23 22:00:00 -- 0 Calma 9 Oeste 0 -- -- 86
2020-08-23 21:00:00 -- 7 Oeste 10 Oeste 0 -- -- 87
2020-08-23 20:00:00 -- 5 Nordeste 14 Este 0 -- -- 80
2020-08-23 19:00:00 -- 13 Nordeste 22 Este 0 -- -- 78
2020-08-23 18:00:00 -- 21 Nordeste 29 Este 0 -- -- 79
2020-08-23 17:00:00 -- 24 Este 31 Este 0 -- -- 78
2020-08-23 16:00:00 -- 25 Este 32 Este 0 -- -- 78
2020-08-23 15:00:00 -- 28 Este 40 Este 0 -- -- 81
2020-08-23 14:00:00 -- 29 Este 39 Nordeste 0 -- -- 83
2020-08-23 13:00:00 -- 27 Nordeste 38 Este 0 -- -- 84
2020-08-23 12:00:00 -- 32 Este 40 Nordeste 0 -- -- 88
2020-08-23 11:00:00 -- 8 Nordeste 14 Nordeste 0 -- -- 76
2020-08-23 10:00:00 -- 8 Sudoeste 10 Sudoeste 0 -- -- 81
2020-08-23 09:00:00 -- 5 Oeste 6 Sudoeste 0 -- -- 82
2020-08-23 08:00:00 -- 0 Calma 5 Sudoeste 0 -- -- 78
2020-08-23 07:00:00 -- 0 Calma 6 Nordeste 0 -- -- 78
2020-08-23 06:00:00 -- 2 Norte 12 Nordeste 0 -- -- 77
2020-08-23 05:00:00 -- 3 Nordeste 8 Sudoeste 0 -- -- 81
2020-08-23 04:00:00 -- 6 Norte 18 Nordeste 0 -- -- 80
2020-08-23 03:00:00 -- 14 Nordeste 19 Nordeste 0 -- -- 74
2020-08-23 02:00:00 -- 13 Nordeste 23 Nordeste 0 -- -- 75
2020-08-23 01:00:00 -- 14 Nordeste 28 Nordeste 0 -- -- 77
2020-08-23 00:00:00 -- 25 Este 32 Nordeste 0 -- -- 81
2020-08-22 23:00:00 -- 29 Este 37 Este 0 -- -- 81
2020-08-22 22:00:00 -- 30 Este 33 Este 0 -- -- 88
2020-08-22 21:00:00 -- 16 Este 21 Este 0 -- -- 85
2020-08-22 20:00:00 -- 9 Oeste 13 Oeste 0 -- -- 77
2020-08-22 19:00:00 -- 12 Oeste 16 Oeste 0 -- -- 79
2020-08-22 18:00:00 -- 15 Oeste 17 Oeste 0 -- -- 79
2020-08-22 17:00:00 -- 8 Oeste 12 Sudoeste 0 -- -- 80
2020-08-22 16:00:00 -- 11 Oeste 17 Oeste 0 -- -- 84
2020-08-22 15:00:00 -- 17 Oeste 19 Sudoeste 0 -- -- 83
2020-08-22 14:00:00 -- 10 Sudoeste 13 Sudoeste 0 -- -- 86
2020-08-22 13:00:00 -- 13 Sudoeste 14 Sudoeste 0 -- -- 88
2020-08-22 12:00:00 -- 10 Sudoeste 15 Oeste 0 -- -- 87
2020-08-22 11:00:00 -- 12 Oeste 14 Sudoeste 0 -- -- 87
2020-08-22 10:00:00 -- 13 Oeste 15 Oeste 0 -- -- 83
2020-08-22 09:00:00 -- 11 Oeste 13 Oeste 0 -- -- 76
2020-08-22 08:00:00 -- 11 Oeste 14 Sudoeste 0 -- -- 80
2020-08-22 07:00:00 -- 12 Oeste 16 Oeste 0 -- -- 80
2020-08-22 06:00:00 -- 8 Oeste 12 Oeste 0 -- -- 87
2020-08-22 05:00:00 -- 2 Oeste 10 Oeste 0 -- -- 88
2020-08-22 04:00:00 -- 0 Calma 18 Este 0 -- -- 89
2020-08-22 03:00:00 -- 14 Este 18 Este 0 -- -- 91
2020-08-22 02:00:00 -- 13 Este 17 Este 0 -- -- 89
2020-08-22 01:00:00 -- 9 Este 15 Nordeste 0 -- -- 89
2020-08-22 00:00:00 -- 13 Este 15 Este 0 -- -- 87
2020-08-21 23:00:00 -- 9 Sudeste 11 Sudeste 0 -- -- 86
2020-08-21 22:00:00 -- 6 Oeste 15 Oeste 0 -- -- 82
2020-08-21 21:00:00 -- 15 Oeste 20 Oeste 0 -- -- 82
2020-08-21 20:00:00 -- 18 Oeste 19 Oeste 0 -- -- 73
2020-08-21 19:00:00 -- 9 Oeste 13 Sudoeste 0 -- -- 77
2020-08-21 18:00:00 -- 13 Sudoeste 24 Oeste 0 -- -- 81
2020-08-21 17:00:00 -- 20 Oeste 24 Oeste 0 -- -- 74
2020-08-21 16:00:00 -- 10 Oeste 14 Oeste 0 -- -- 83
2020-08-21 15:00:00 -- 12 Sudoeste 19 Oeste 0 -- -- 84
2020-08-21 14:00:00 -- 18 Oeste 21 Oeste 0 -- -- 86
2020-08-21 13:00:00 -- 12 Oeste 17 Sudoeste 0 -- -- 86
2020-08-21 12:00:00 -- 15 Oeste 24 Sudoeste 0 -- -- 78
2020-08-21 11:00:00 -- 17 Oeste 22 Oeste 0 -- -- 87
2020-08-21 10:00:00 -- 10 Oeste 14 Oeste 0 -- -- 76
2020-08-21 09:00:00 -- 12 Oeste 16 Oeste 0 -- -- 68
2020-08-21 08:00:00 -- 12 Oeste 14 Oeste 0 -- -- 60
2020-08-21 07:00:00 -- 2 Oeste 13 Oeste 0 -- -- 65
2020-08-21 06:00:00 -- 7 Noroeste 11 Oeste 0 -- -- 72
2020-08-21 05:00:00 -- 5 Oeste 12 Oeste 0 -- -- 73
2020-08-21 04:00:00 -- 6 Oeste 9 Oeste 0 -- -- 85
2020-08-21 03:00:00 -- 4 Oeste 8 Este 0 -- -- 90
2020-08-21 02:00:00 -- 5 Este 9 Este 0 -- -- 89
2020-08-21 01:00:00 -- 6 Este 7 Este 0 -- -- 85
2020-08-21 00:00:00 -- 0 Calma 15 Oeste 0 -- -- 91